createdAt,value
2019-02-24T00:00:43.020Z,-2.20
2019-02-24T00:01:24.932Z,-2.20
2019-02-24T00:01:57.754Z,-2.10
2019-02-24T00:02:30.259Z,-2.10
2019-02-24T00:03:02.945Z,-2.20
2019-02-24T00:03:35.439Z,-2.20
2019-02-24T00:04:08.195Z,-2.20
2019-02-24T00:04:40.698Z,-2.20
2019-02-24T00:05:13.490Z,-2.20
2019-02-24T00:05:46.360Z,-2.20
2019-02-24T00:06:18.851Z,-2.20
2019-02-24T00:06:51.378Z,-2.20
2019-02-24T00:07:23.888Z,-2.20
2019-02-24T00:07:56.407Z,-2.20
2019-02-24T00:08:28.928Z,-2.10
2019-02-24T00:09:01.410Z,-2.20
2019-02-24T00:09:33.919Z,-2.20
2019-02-24T00:10:06.420Z,-2.20
2019-02-24T00:10:38.912Z,-2.10
2019-02-24T00:11:11.384Z,-2.10
2019-02-24T00:11:43.892Z,-2.10
2019-02-24T00:12:17.746Z,-2.10
2019-02-24T00:12:50.252Z,-2.10
2019-02-24T00:13:22.748Z,-2.10
2019-02-24T00:13:55.387Z,-2.10
2019-02-24T00:14:27.866Z,-2.10
2019-02-24T00:15:00.425Z,-2.10
2019-02-24T00:15:33.017Z,-2.10
2019-02-24T00:16:05.584Z,-2.10
2019-02-24T00:16:38.486Z,-2.10
2019-02-24T00:17:12.568Z,-2.10
2019-02-24T00:17:45.100Z,-2.10
2019-02-24T00:18:17.639Z,-2.10
2019-02-24T00:18:52.191Z,-2.00
2019-02-24T00:19:31.769Z,-2.10
2019-02-24T00:20:04.428Z,-2.10
2019-02-24T00:20:37.982Z,-2.00
2019-02-24T00:21:12.358Z,-2.00
2019-02-24T00:21:46.084Z,-2.00
2019-02-24T00:22:18.553Z,-2.00
2019-02-24T00:22:51.105Z,-2.00
2019-02-24T00:23:28.764Z,-2.00
2019-02-24T00:24:01.438Z,-2.00
2019-02-24T00:24:40.643Z,-2.00
2019-02-24T00:25:14.087Z,-2.00
2019-02-24T00:25:46.809Z,-2.00
2019-02-24T00:26:20.416Z,-2.00
2019-02-24T00:26:52.858Z,-2.00
2019-02-24T00:27:26.326Z,-2.00
2019-02-24T00:28:06.977Z,-2.00
2019-02-24T00:28:33.868Z,-2.00
2019-02-24T00:29:06.391Z,-2.00
2019-02-24T00:29:41.150Z,-2.00
2019-02-24T00:30:23.084Z,-2.00
2019-02-24T00:30:57.303Z,-2.00
2019-02-24T00:31:30.649Z,-2.00
2019-02-24T00:32:04.656Z,-2.00
2019-02-24T00:32:38.048Z,-2.00
2019-02-24T00:33:10.579Z,-1.90
2019-02-24T00:33:45.650Z,-2.00
2019-02-24T00:34:19.484Z,-2.00
2019-02-24T00:34:53.543Z,-2.00
2019-02-24T00:35:28.382Z,-2.00
2019-02-24T00:36:04.086Z,-2.00
2019-02-24T00:36:37.294Z,-1.90
2019-02-24T00:37:10.893Z,-2.00
2019-02-24T00:37:45.859Z,-2.00
2019-02-24T00:38:18.398Z,-1.90
2019-02-24T00:38:50.952Z,-1.90
2019-02-24T00:39:23.442Z,-1.90
2019-02-24T00:39:55.943Z,-1.90
2019-02-24T00:40:28.767Z,-1.90
2019-02-24T00:41:01.242Z,-1.90
2019-02-24T00:41:34.198Z,-1.90
2019-02-24T00:42:06.736Z,-1.90
2019-02-24T00:42:39.216Z,-1.90
2019-02-24T00:43:11.753Z,-1.90
2019-02-24T00:43:44.249Z,-1.90
2019-02-24T00:44:17.052Z,-1.90
2019-02-24T00:44:50.268Z,-1.90
2019-02-24T00:45:23.109Z,-1.90
2019-02-24T00:45:55.590Z,-1.90
2019-02-24T00:46:28.480Z,-1.90
2019-02-24T00:47:00.964Z,-1.90
2019-02-24T00:47:33.518Z,-1.90
2019-02-24T00:48:06.760Z,-1.90
2019-02-24T00:48:39.245Z,-1.90
2019-02-24T00:49:12.166Z,-1.90
2019-02-24T00:49:45.224Z,-1.90
2019-02-24T00:50:17.713Z,-1.90
2019-02-24T00:50:50.242Z,-1.90
2019-02-24T00:51:22.678Z,-1.90
2019-02-24T00:51:55.184Z,-1.90
2019-02-24T00:52:27.675Z,-1.90
2019-02-24T00:53:00.456Z,-1.90
2019-02-24T00:53:33.214Z,-1.90
2019-02-24T00:54:06.104Z,-2.00
2019-02-24T00:54:38.894Z,-2.00
2019-02-24T00:55:11.379Z,-2.00
2019-02-24T00:55:43.872Z,-1.90
2019-02-24T00:56:16.368Z,-1.90
2019-02-24T00:56:49.006Z,-1.90
2019-02-24T00:57:21.497Z,-1.90
2019-02-24T00:57:53.997Z,-1.90
2019-02-24T00:58:26.486Z,-1.90
2019-02-24T00:58:59.303Z,-1.90
2019-02-24T00:59:32.092Z,-1.90
2019-02-24T01:00:04.865Z,-1.90
2019-02-24T01:00:37.350Z,-1.90
2019-02-24T01:01:09.838Z,-1.90
2019-02-24T01:01:42.322Z,-1.90
2019-02-24T01:02:14.807Z,-1.90
2019-02-24T01:02:47.622Z,-1.90
2019-02-24T01:03:21.048Z,-1.90
2019-02-24T01:03:53.547Z,-1.90
2019-02-24T01:04:26.044Z,-1.90
2019-02-24T01:04:59.134Z,-1.90
2019-02-24T01:05:31.661Z,-1.90
2019-02-24T01:06:04.173Z,-2.00
2019-02-24T01:06:36.817Z,-1.90
2019-02-24T01:07:09.759Z,-2.00
2019-02-24T01:07:42.264Z,-2.00
2019-02-24T01:08:14.759Z,-2.00
2019-02-24T01:08:47.639Z,-2.00
2019-02-24T01:09:20.121Z,-1.90
2019-02-24T01:09:52.895Z,-2.00
2019-02-24T01:10:26.961Z,-2.00
2019-02-24T01:10:59.512Z,-2.00
2019-02-24T01:11:31.999Z,-2.00
2019-02-24T01:12:04.976Z,-2.00
2019-02-24T01:12:37.459Z,-2.00
2019-02-24T01:13:09.951Z,-2.00
2019-02-24T01:13:42.493Z,-2.00
2019-02-24T01:14:14.967Z,-2.00
2019-02-24T01:14:47.456Z,-2.00
2019-02-24T01:15:20.226Z,-2.00
2019-02-24T01:15:52.996Z,-2.00
2019-02-24T01:16:25.842Z,-2.00
2019-02-24T01:16:58.324Z,-2.00
2019-02-24T01:17:30.826Z,-2.00
2019-02-24T01:18:03.323Z,-2.00
2019-02-24T01:18:36.255Z,-2.10
2019-02-24T01:19:08.752Z,-2.10
2019-02-24T01:19:41.238Z,-2.10
2019-02-24T01:20:13.990Z,-2.10
2019-02-24T01:20:46.487Z,-2.10
2019-02-24T01:21:18.992Z,-2.10
2019-02-24T01:21:51.550Z,-2.10
2019-02-24T01:22:24.026Z,-2.10
2019-02-24T01:22:57.250Z,-2.10
2019-02-24T01:23:30.047Z,-2.10
2019-02-24T01:24:02.535Z,-2.10
2019-02-24T01:24:35.019Z,-2.10
2019-02-24T01:25:07.627Z,-2.10
2019-02-24T01:25:40.129Z,-2.10
2019-02-24T01:26:12.894Z,-2.10
2019-02-24T01:26:45.379Z,-2.10
2019-02-24T01:27:17.932Z,-2.10
2019-02-24T01:27:50.411Z,-2.10
2019-02-24T01:28:25.533Z,-2.10
2019-02-24T01:28:57.508Z,-2.10
2019-02-24T01:29:30.005Z,-2.10
2019-02-24T01:30:02.600Z,-2.10
2019-02-24T01:30:42.404Z,-2.10
2019-02-24T01:31:15.315Z,-2.10
2019-02-24T01:31:47.812Z,-2.10
2019-02-24T01:32:20.313Z,-2.10
2019-02-24T01:32:52.852Z,-2.10
2019-02-24T01:33:25.348Z,-2.10
2019-02-24T01:33:58.173Z,-2.10
2019-02-24T01:34:30.697Z,-2.10
2019-02-24T01:35:03.172Z,-2.10
2019-02-24T01:35:35.984Z,-2.10
2019-02-24T01:36:08.468Z,-2.10
2019-02-24T01:36:40.971Z,-2.10
2019-02-24T01:37:13.466Z,-2.10
2019-02-24T01:37:46.275Z,-2.10
2019-02-24T01:38:18.808Z,-2.10
2019-02-24T01:38:51.777Z,-2.10
2019-02-24T01:39:24.601Z,-2.10
2019-02-24T01:39:57.097Z,-2.10
2019-02-24T01:40:29.591Z,-2.10
2019-02-24T01:41:02.112Z,-2.10
2019-02-24T01:41:35.370Z,-2.10
2019-02-24T01:42:07.851Z,-2.20
2019-02-24T01:42:40.397Z,-2.20
2019-02-24T01:43:12.895Z,-2.10
2019-02-24T01:43:45.478Z,-2.10
2019-02-24T01:44:17.957Z,-2.10
2019-02-24T01:44:50.457Z,-2.20
2019-02-24T01:45:22.939Z,-2.10
2019-02-24T01:45:55.435Z,-2.10
2019-02-24T01:46:28.318Z,-2.10
2019-02-24T01:47:00.813Z,-2.10
2019-02-24T01:47:33.606Z,-2.10
2019-02-24T01:48:06.104Z,-2.00
2019-02-24T01:48:38.587Z,-1.90
2019-02-24T01:49:11.112Z,-1.90
2019-02-24T01:49:43.613Z,-1.90
2019-02-24T01:50:16.090Z,-1.90
2019-02-24T01:50:48.955Z,-1.90
2019-02-24T01:51:21.453Z,-1.90
2019-02-24T01:51:53.969Z,-1.80
2019-02-24T01:52:26.454Z,-1.80
2019-02-24T01:52:58.947Z,-1.70
2019-02-24T01:53:31.779Z,-1.70
2019-02-24T01:54:04.555Z,-1.60
2019-02-24T01:54:37.367Z,-1.70
2019-02-24T01:55:10.202Z,-1.70
2019-02-24T01:55:42.691Z,-1.70
2019-02-24T01:56:15.178Z,-1.70
2019-02-24T01:56:48.386Z,-1.70
2019-02-24T01:57:20.884Z,-1.70
2019-02-24T01:57:53.391Z,-1.70
2019-02-24T01:58:34.586Z,-1.70
2019-02-24T01:59:00.528Z,-1.80
2019-02-24T01:59:33.305Z,-1.80
2019-02-24T02:00:06.630Z,-1.80
2019-02-24T02:00:39.201Z,-1.80
2019-02-24T02:01:12.084Z,-1.80
2019-02-24T02:01:44.587Z,-1.80
2019-02-24T02:02:17.092Z,-1.80
2019-02-24T02:02:50.360Z,-1.80
2019-02-24T02:03:23.269Z,-1.90
2019-02-24T02:03:55.777Z,-1.90
2019-02-24T02:04:28.288Z,-1.90
2019-02-24T02:05:00.788Z,-1.90
2019-02-24T02:05:33.603Z,-1.90
2019-02-24T02:06:06.108Z,-1.90
2019-02-24T02:06:38.930Z,-1.90
2019-02-24T02:07:11.419Z,-1.90
2019-02-24T02:07:43.911Z,-1.90
2019-02-24T02:08:16.401Z,-1.80
2019-02-24T02:08:49.278Z,-1.80
2019-02-24T02:09:22.103Z,-1.80
2019-02-24T02:09:54.875Z,-1.80
2019-02-24T02:10:27.360Z,-1.80
2019-02-24T02:10:59.910Z,-1.80
2019-02-24T02:11:32.385Z,-1.80
2019-02-24T02:12:05.154Z,-1.80
2019-02-24T02:12:37.934Z,-1.80
2019-02-24T02:13:11.034Z,-1.80
2019-02-24T02:13:43.534Z,-1.80
2019-02-24T02:14:16.027Z,-1.80
2019-02-24T02:14:49.167Z,-1.80
2019-02-24T02:15:21.640Z,-1.80
2019-02-24T02:15:54.546Z,-1.80
2019-02-24T02:16:27.545Z,-1.80
2019-02-24T02:17:00.034Z,-1.80
2019-02-24T02:17:32.538Z,-1.80
2019-02-24T02:18:05.028Z,-1.80
2019-02-24T02:18:37.880Z,-1.80
2019-02-24T02:19:10.456Z,-1.80
2019-02-24T02:19:43.343Z,-1.80
2019-02-24T02:20:16.209Z,-1.80
2019-02-24T02:20:48.707Z,-1.80
2019-02-24T02:21:21.199Z,-1.80
2019-02-24T02:21:54.116Z,-1.80
2019-02-24T02:22:26.870Z,-1.80
2019-02-24T02:22:59.351Z,-1.80
2019-02-24T02:23:31.853Z,-1.80
2019-02-24T02:24:04.335Z,-1.80
2019-02-24T02:24:37.425Z,-1.80
2019-02-24T02:25:09.908Z,-1.90
2019-02-24T02:25:42.810Z,-1.90
2019-02-24T02:26:15.303Z,-1.80
2019-02-24T02:26:48.733Z,-1.80
2019-02-24T02:27:21.242Z,-1.80
2019-02-24T02:27:54.140Z,-1.80
2019-02-24T02:28:26.979Z,-1.80
2019-02-24T02:28:59.462Z,-1.80
2019-02-24T02:29:32.373Z,-1.80
2019-02-24T02:30:06.305Z,-1.80
2019-02-24T02:30:38.788Z,-1.80
2019-02-24T02:31:11.643Z,-1.80
2019-02-24T02:31:44.511Z,-1.80
2019-02-24T02:32:16.990Z,-1.80
2019-02-24T02:32:49.504Z,-1.80
2019-02-24T02:33:22.362Z,-1.80
2019-02-24T02:33:55.126Z,-1.70
2019-02-24T02:34:27.622Z,-1.70
2019-02-24T02:35:00.384Z,-1.70
2019-02-24T02:35:33.640Z,-1.70
2019-02-24T02:36:06.139Z,-1.70
2019-02-24T02:36:38.615Z,-1.80
2019-02-24T02:37:11.815Z,-1.80
2019-02-24T02:37:44.594Z,-1.80
2019-02-24T02:38:17.084Z,-1.70
2019-02-24T02:38:50.190Z,-1.70
2019-02-24T02:39:23.010Z,-1.70
2019-02-24T02:39:55.929Z,-1.70
2019-02-24T02:40:28.718Z,-1.70
2019-02-24T02:41:01.487Z,-1.70
2019-02-24T02:47:00.826Z,-1.70
2019-02-24T02:47:34.333Z,-1.70
2019-02-24T02:48:06.832Z,-1.70
2019-02-24T02:48:39.761Z,-1.70
2019-02-24T02:49:12.591Z,-1.70
2019-02-24T02:49:45.130Z,-1.70
2019-02-24T02:50:17.707Z,-1.60
2019-02-24T02:50:50.549Z,-1.60
2019-02-24T02:51:23.373Z,-1.60
2019-02-24T02:51:55.891Z,-1.60
2019-02-24T02:52:29.001Z,-1.60
2019-02-24T02:53:01.519Z,-1.60
2019-02-24T02:53:34.389Z,-1.70
2019-02-24T02:54:07.181Z,-1.70
2019-02-24T02:54:39.773Z,-1.60
2019-02-24T02:55:12.281Z,-1.60
2019-02-24T02:55:44.792Z,-1.60
2019-02-24T02:56:17.315Z,-1.60
2019-02-24T02:56:49.859Z,-1.60
2019-02-24T02:57:22.376Z,-1.60
2019-02-24T02:57:54.930Z,-1.60
2019-02-24T02:58:27.463Z,-1.60
2019-02-24T02:59:00.694Z,-1.60
2019-02-24T02:59:33.502Z,-1.60
2019-02-24T03:00:12.021Z,-1.60
2019-02-24T03:00:45.220Z,-1.70
2019-02-24T03:01:18.134Z,-1.60
2019-02-24T03:01:51.255Z,-1.60
2019-02-24T03:02:24.862Z,-1.60
2019-02-24T03:02:57.443Z,-1.60
2019-02-24T03:03:30.705Z,-1.60
2019-02-24T03:04:03.200Z,-1.60
2019-02-24T03:04:36.529Z,-1.60
2019-02-24T03:05:09.319Z,-1.60
2019-02-24T03:05:50.465Z,-1.60
2019-02-24T03:06:31.540Z,-1.60
2019-02-24T03:07:26.826Z,-1.60
2019-02-24T03:08:17.992Z,-1.60
2019-02-24T03:08:51.929Z,-1.60
2019-02-24T03:09:24.770Z,-1.60
2019-02-24T03:09:58.097Z,-1.60
2019-02-24T03:10:30.620Z,-1.60
2019-02-24T03:11:03.185Z,-1.50
2019-02-24T03:11:35.696Z,-1.60
2019-02-24T03:12:08.499Z,-1.50
2019-02-24T03:12:41.570Z,-1.50
2019-02-24T03:13:14.577Z,-1.50
2019-02-24T03:13:47.111Z,-1.50
2019-02-24T03:14:20.228Z,-1.50
2019-02-24T03:14:52.770Z,-1.50
2019-02-24T03:15:25.289Z,-1.50
2019-02-24T03:15:57.825Z,-1.50
2019-02-24T03:16:30.385Z,-1.40
2019-02-24T03:17:02.942Z,-1.50
2019-02-24T03:17:35.805Z,-1.40
2019-02-24T03:18:08.332Z,-1.40
2019-02-24T03:18:40.853Z,-1.40
2019-02-24T03:19:13.364Z,-1.40
2019-02-24T03:19:46.188Z,-1.40
2019-02-24T03:20:19.073Z,-1.40
2019-02-24T03:20:51.910Z,-1.40
2019-02-24T03:21:24.455Z,-1.40
2019-02-24T03:21:57.017Z,-1.40
2019-02-24T03:22:29.539Z,-1.40
2019-02-24T03:23:02.064Z,-1.40
2019-02-24T03:23:34.601Z,-1.40
2019-02-24T03:24:07.117Z,-1.40
2019-02-24T03:24:39.662Z,-1.40
2019-02-24T03:25:12.216Z,-1.40
2019-02-24T03:25:44.762Z,-1.40
2019-02-24T03:26:17.312Z,-1.40
2019-02-24T03:26:49.873Z,-1.40
2019-02-24T03:27:22.429Z,-1.40
2019-02-24T03:27:54.963Z,-1.40
2019-02-24T03:28:27.945Z,-1.40
2019-02-24T03:29:04.194Z,-1.40
2019-02-24T03:29:34.807Z,-1.40
2019-02-24T03:30:07.797Z,-1.40
2019-02-24T03:30:40.340Z,-1.40
2019-02-24T03:31:13.263Z,-1.30
2019-02-24T03:31:46.133Z,-1.40
2019-02-24T03:32:19.045Z,-1.30
2019-02-24T03:32:51.593Z,-1.40
2019-02-24T03:33:24.151Z,-1.30
2019-02-24T03:33:56.850Z,-1.30
2019-02-24T03:34:29.707Z,-1.30
2019-02-24T03:35:02.939Z,-1.30
2019-02-24T03:35:35.462Z,-1.30
2019-02-24T03:36:08.008Z,-1.30
2019-02-24T03:36:40.556Z,-1.30
2019-02-24T03:37:13.475Z,-1.30
2019-02-24T03:37:46.443Z,-1.30
2019-02-24T03:38:19.286Z,-1.40
2019-02-24T03:38:52.448Z,-1.30
2019-02-24T03:39:24.986Z,-1.30
2019-02-24T03:39:58.114Z,-1.30
2019-02-24T03:40:30.765Z,-1.30
2019-02-24T03:41:03.703Z,-1.30
2019-02-24T03:41:36.223Z,-1.30
2019-02-24T03:42:08.960Z,-1.30
2019-02-24T03:42:41.637Z,-1.30
2019-02-24T03:43:14.360Z,-1.30
2019-02-24T03:43:47.439Z,-1.20
2019-02-24T03:44:19.980Z,-1.20
2019-02-24T03:44:53.402Z,-1.20
2019-02-24T03:45:26.591Z,-1.20
2019-02-24T03:45:59.205Z,-1.20
2019-02-24T03:46:32.185Z,-1.20
2019-02-24T03:47:05.047Z,-1.20
2019-02-24T03:47:37.841Z,-1.20
2019-02-24T03:48:10.468Z,-1.20
2019-02-24T03:48:43.063Z,-1.20
2019-02-24T03:49:15.798Z,-1.10
2019-02-24T03:49:48.716Z,-1.10
2019-02-24T03:50:21.874Z,-1.10
2019-02-24T03:50:54.434Z,-1.10
2019-02-24T03:51:27.026Z,-1.10
2019-02-24T03:51:59.613Z,-1.10
2019-02-24T03:52:32.412Z,-1.10
2019-02-24T03:53:05.019Z,-1.10
2019-02-24T03:53:38.031Z,-1.10
2019-02-24T03:54:11.020Z,-1.10
2019-02-24T03:54:44.025Z,-1.10
2019-02-24T03:55:16.590Z,-1.10
2019-02-24T03:55:49.158Z,-1.10
2019-02-24T03:56:22.472Z,-1.10
2019-02-24T03:56:54.982Z,-1.10
2019-02-24T03:57:27.493Z,-1.10
2019-02-24T03:58:00.314Z,-1.10
2019-02-24T03:58:33.492Z,-1.10
2019-02-24T03:59:14.752Z,-1.10
2019-02-24T03:59:40.664Z,-1.10
2019-02-24T04:00:13.231Z,-1.10
2019-02-24T04:00:46.062Z,-1.10
2019-02-24T04:01:18.585Z,-1.10
2019-02-24T04:01:51.153Z,-1.10
2019-02-24T04:02:23.719Z,-1.10
2019-02-24T04:02:56.260Z,-1.10
2019-02-24T04:03:28.800Z,-1.10
2019-02-24T04:04:01.324Z,-1.10
2019-02-24T04:04:34.139Z,-1.10
2019-02-24T04:05:06.661Z,-1.10
2019-02-24T04:05:39.241Z,-1.10
2019-02-24T04:06:12.042Z,-1.10
2019-02-24T04:06:44.549Z,-1.10
2019-02-24T04:07:17.424Z,-1.10
2019-02-24T04:07:50.279Z,-1.10
2019-02-24T04:08:23.537Z,-1.10
2019-02-24T04:08:56.059Z,-1.10
2019-02-24T04:09:29.078Z,-1.10
2019-02-24T04:10:01.868Z,-1.10
2019-02-24T04:10:34.388Z,-1.10
2019-02-24T04:11:06.942Z,-1.10
2019-02-24T04:11:40.112Z,-1.10
2019-02-24T04:12:13.047Z,-1.10
2019-02-24T04:12:45.611Z,-1.10
2019-02-24T04:13:18.139Z,-1.10
2019-02-24T04:13:50.943Z,-1.10
2019-02-24T04:14:23.757Z,-1.10
2019-02-24T04:14:56.943Z,-1.10
2019-02-24T04:15:29.761Z,-1.10
2019-02-24T04:16:02.293Z,-1.10
2019-02-24T04:16:34.851Z,-1.10
2019-02-24T04:17:07.662Z,-1.10
2019-02-24T04:17:40.189Z,-1.10
2019-02-24T04:18:12.974Z,-1.10
2019-02-24T04:18:45.504Z,-1.10
2019-02-24T04:19:18.412Z,-1.10
2019-02-24T04:19:51.346Z,-1.10
2019-02-24T04:20:24.858Z,-1.10
2019-02-24T04:20:57.391Z,-1.10
2019-02-24T04:21:30.493Z,-1.10
2019-02-24T04:22:03.064Z,-1.10
2019-02-24T04:22:35.590Z,-1.10
2019-02-24T04:23:08.128Z,-1.20
2019-02-24T04:23:40.943Z,-1.20
2019-02-24T04:24:13.466Z,-1.10
2019-02-24T04:24:46.557Z,-1.20
2019-02-24T04:25:19.640Z,-1.20
2019-02-24T04:25:52.165Z,-1.20
2019-02-24T04:26:25.067Z,-1.20
2019-02-24T04:26:57.587Z,-1.20
2019-02-24T04:27:30.850Z,-1.20
2019-02-24T04:28:03.380Z,-1.20
2019-02-24T04:28:36.342Z,-1.20
2019-02-24T04:29:08.860Z,-1.20
2019-02-24T04:29:41.430Z,-1.20
2019-02-24T04:30:13.958Z,-1.20
2019-02-24T04:30:46.449Z,-1.20
2019-02-24T04:31:18.983Z,-1.20
2019-02-24T04:31:51.506Z,-1.20
2019-02-24T04:32:24.408Z,-1.20
2019-02-24T04:32:57.274Z,-1.20
2019-02-24T04:33:29.785Z,-1.20
2019-02-24T04:34:02.635Z,-1.20
2019-02-24T04:34:35.180Z,-1.20
2019-02-24T04:35:07.720Z,-1.30
2019-02-24T04:35:40.253Z,-1.30
2019-02-24T04:36:13.581Z,-1.30
2019-02-24T04:36:46.071Z,-1.30
2019-02-24T04:37:19.592Z,-1.30
2019-02-24T04:37:52.127Z,-1.30
2019-02-24T04:38:24.701Z,-1.30
2019-02-24T04:38:57.606Z,-1.30
2019-02-24T04:39:30.246Z,-1.30
2019-02-24T04:40:03.989Z,-1.30
2019-02-24T04:40:36.858Z,-1.20
2019-02-24T04:41:10.126Z,-1.30
2019-02-24T04:41:42.674Z,-1.30
2019-02-24T04:42:15.151Z,-1.20
2019-02-24T04:42:48.113Z,-1.20
2019-02-24T04:43:20.608Z,-1.20
2019-02-24T04:43:53.159Z,-1.20
2019-02-24T04:44:25.767Z,-1.20
2019-02-24T04:44:58.577Z,-1.20
2019-02-24T04:45:31.084Z,-1.20
2019-02-24T04:46:03.621Z,-1.20
2019-02-24T04:46:36.232Z,-1.20
2019-02-24T04:47:08.746Z,-1.20
2019-02-24T04:47:41.680Z,-1.20
2019-02-24T04:48:14.201Z,-1.20
2019-02-24T04:48:46.999Z,-1.20
2019-02-24T04:49:19.887Z,-1.20
2019-02-24T04:49:52.407Z,-1.20
2019-02-24T04:50:24.937Z,-1.20
2019-02-24T04:50:57.813Z,-1.20
2019-02-24T04:51:30.619Z,-1.20
2019-02-24T04:52:03.173Z,-1.20
2019-02-24T04:52:36.141Z,-1.20
2019-02-24T04:53:08.905Z,-1.20
2019-02-24T04:53:41.442Z,-1.20
2019-02-24T04:54:14.304Z,-1.20
2019-02-24T04:54:46.866Z,-1.20
2019-02-24T04:55:19.410Z,-1.20
2019-02-24T04:55:52.228Z,-1.20
2019-02-24T04:56:24.770Z,-1.20
2019-02-24T04:56:57.317Z,-1.20
2019-02-24T04:57:30.223Z,-1.30
2019-02-24T04:58:02.714Z,-1.30
2019-02-24T04:58:35.625Z,-1.30
2019-02-24T04:59:08.719Z,-1.20
2019-02-24T04:59:41.595Z,-1.30
2019-02-24T05:00:14.151Z,-1.30
2019-02-24T05:00:46.684Z,-1.20
2019-02-24T05:01:19.205Z,-1.20
2019-02-24T05:01:51.749Z,-1.30
2019-02-24T05:02:24.277Z,-1.20
2019-02-24T05:02:56.776Z,-1.30
2019-02-24T05:03:29.302Z,-1.30
2019-02-24T05:04:02.188Z,-1.30
2019-02-24T05:04:35.084Z,-1.30
2019-02-24T05:05:07.623Z,-1.30
2019-02-24T05:05:40.154Z,-1.30
2019-02-24T05:06:12.662Z,-1.30
2019-02-24T05:06:45.187Z,-1.30
2019-02-24T05:07:18.477Z,-1.30
2019-02-24T05:07:51.343Z,-1.30
2019-02-24T05:08:24.147Z,-1.30
2019-02-24T05:08:56.664Z,-1.30
2019-02-24T05:09:29.186Z,-1.30
2019-02-24T05:10:02.128Z,-1.30
2019-02-24T05:10:34.953Z,-1.30
2019-02-24T05:11:07.541Z,-1.30
2019-02-24T05:11:40.053Z,-1.30
2019-02-24T05:12:12.872Z,-1.30
2019-02-24T05:12:45.417Z,-1.40
2019-02-24T05:13:17.928Z,-1.40
2019-02-24T05:13:50.455Z,-1.40
2019-02-24T05:14:22.974Z,-1.40
2019-02-24T05:14:55.778Z,-1.40
2019-02-24T05:15:28.879Z,-1.40
2019-02-24T05:16:01.379Z,-1.40
2019-02-24T05:16:33.942Z,-1.40
2019-02-24T05:17:06.445Z,-1.40
2019-02-24T05:17:39.223Z,-1.40
2019-02-24T05:18:12.376Z,-1.40
2019-02-24T05:18:44.913Z,-1.40
2019-02-24T05:19:17.721Z,-1.40
2019-02-24T05:19:50.416Z,-1.40
2019-02-24T05:20:22.916Z,-1.40
2019-02-24T05:20:56.061Z,-1.40
2019-02-24T05:21:29.413Z,-1.40
2019-02-24T05:22:02.103Z,-1.40
2019-02-24T05:22:34.911Z,-1.40
2019-02-24T05:23:07.418Z,-1.40
2019-02-24T05:23:40.238Z,-1.40
2019-02-24T05:24:13.579Z,-1.40
2019-02-24T05:24:47.099Z,-1.40
2019-02-24T05:25:19.635Z,-1.40
2019-02-24T05:25:52.193Z,-1.40
2019-02-24T05:26:24.999Z,-1.40
2019-02-24T05:26:57.870Z,-1.40
2019-02-24T05:27:30.805Z,-1.40
2019-02-24T05:28:03.312Z,-1.40
2019-02-24T05:28:35.862Z,-1.40
2019-02-24T05:29:08.378Z,-1.50
2019-02-24T05:29:45.883Z,-1.40
2019-02-24T05:30:15.251Z,-1.40
2019-02-24T05:30:48.511Z,-1.40
2019-02-24T05:31:21.375Z,-1.50
2019-02-24T05:31:53.927Z,-1.50
2019-02-24T05:32:26.448Z,-1.50
2019-02-24T05:32:59.001Z,-1.50
2019-02-24T05:33:31.862Z,-1.50
2019-02-24T05:34:04.383Z,-1.50
2019-02-24T05:34:37.511Z,-1.50
2019-02-24T05:35:10.025Z,-1.50
2019-02-24T05:35:42.607Z,-1.50
2019-02-24T05:36:15.566Z,-1.50
2019-02-24T05:36:48.097Z,-1.50
2019-02-24T05:37:21.333Z,-1.50
2019-02-24T05:37:54.458Z,-1.50
2019-02-24T05:38:27.301Z,-1.50
2019-02-24T05:38:59.802Z,-1.50
2019-02-24T05:39:32.709Z,-1.50
2019-02-24T05:40:05.231Z,-1.50
2019-02-24T05:40:37.744Z,-1.60
2019-02-24T05:41:10.239Z,-1.50
2019-02-24T05:41:43.167Z,-1.60
2019-02-24T05:42:15.684Z,-1.60
2019-02-24T05:42:48.216Z,-1.60
2019-02-24T05:43:20.751Z,-1.60
2019-02-24T05:43:53.710Z,-1.60
2019-02-24T05:44:26.314Z,-1.60
2019-02-24T05:44:59.156Z,-1.50
2019-02-24T05:45:31.677Z,-1.50
2019-02-24T05:46:04.913Z,-1.60
2019-02-24T05:46:37.883Z,-1.60
2019-02-24T05:47:11.051Z,-1.60
2019-02-24T05:47:47.252Z,-1.60
2019-02-24T05:48:20.023Z,-1.60
2019-02-24T05:48:56.935Z,-1.60
2019-02-24T05:49:29.801Z,-1.50
2019-02-24T05:50:04.255Z,-1.50
2019-02-24T05:50:44.425Z,-1.50
2019-02-24T05:51:17.208Z,-1.50
2019-02-24T05:51:49.921Z,-1.50
2019-02-24T05:52:22.841Z,-1.50
2019-02-24T05:52:55.463Z,-1.50
2019-02-24T05:53:28.896Z,-1.50
2019-02-24T05:54:01.581Z,-1.50
2019-02-24T05:54:34.274Z,-1.50
2019-02-24T05:55:06.937Z,-1.50
2019-02-24T05:55:40.114Z,-1.50
2019-02-24T05:56:14.604Z,-1.50
2019-02-24T05:56:47.793Z,-1.50
2019-02-24T05:57:21.025Z,-1.50
2019-02-24T05:57:54.442Z,-1.50
2019-02-24T05:58:28.646Z,-1.50
2019-02-24T05:59:01.656Z,-1.50
2019-02-24T05:59:35.169Z,-1.60
2019-02-24T06:00:08.657Z,-1.60
2019-02-24T06:00:42.203Z,-1.50
2019-02-24T06:01:15.296Z,-1.60
2019-02-24T06:01:51.181Z,-1.60
2019-02-24T06:02:24.322Z,-1.60
2019-02-24T06:02:57.507Z,-1.60
2019-02-24T06:03:30.200Z,-1.60
2019-02-24T06:04:03.034Z,-1.60
2019-02-24T06:04:35.918Z,-1.60
2019-02-24T06:05:08.673Z,-1.60
2019-02-24T06:05:43.466Z,-1.60
2019-02-24T06:06:16.526Z,-1.60
2019-02-24T06:06:49.458Z,-1.60
2019-02-24T06:07:22.893Z,-1.60
2019-02-24T06:07:59.688Z,-1.60
2019-02-24T06:08:34.143Z,-1.60
2019-02-24T06:09:12.403Z,-1.60
2019-02-24T06:09:45.475Z,-1.60
2019-02-24T06:10:18.376Z,-1.60
2019-02-24T06:11:00.010Z,-1.60
2019-02-24T06:11:38.272Z,-1.60
2019-02-24T06:12:14.297Z,-1.60
2019-02-24T06:12:48.201Z,-1.60
2019-02-24T06:13:21.054Z,-1.50
2019-02-24T06:13:54.340Z,-1.50
2019-02-24T06:14:27.311Z,-1.50
2019-02-24T06:15:00.219Z,-1.50
2019-02-24T06:15:33.224Z,-1.50
2019-02-24T06:16:07.557Z,-1.50
2019-02-24T06:16:44.221Z,-1.50
2019-02-24T06:17:18.718Z,-1.50
2019-02-24T06:17:53.729Z,-1.50
2019-02-24T06:18:26.527Z,-1.50
2019-02-24T06:18:59.790Z,-1.50
2019-02-24T06:19:36.858Z,-1.50
2019-02-24T06:20:13.474Z,-1.50
2019-02-24T06:20:46.596Z,-1.50
2019-02-24T06:21:19.299Z,-1.50
2019-02-24T06:21:58.126Z,-1.50
2019-02-24T06:22:36.846Z,-1.40
2019-02-24T06:23:17.150Z,-1.40
2019-02-24T06:23:50.969Z,-1.40
2019-02-24T06:24:23.828Z,-1.40
2019-02-24T06:25:00.894Z,-1.40
2019-02-24T06:25:35.375Z,-1.40
2019-02-24T06:26:08.642Z,-1.40
2019-02-24T06:26:43.852Z,-1.40
2019-02-24T06:27:16.558Z,-1.40
2019-02-24T06:27:49.589Z,-1.40
2019-02-24T06:28:24.210Z,-1.40
2019-02-24T06:29:06.439Z,-1.40
2019-02-24T06:30:04.588Z,-1.40
2019-02-24T06:30:31.196Z,-1.40
2019-02-24T06:31:06.967Z,-1.30
2019-02-24T06:31:47.911Z,-1.30
2019-02-24T06:32:20.607Z,-1.30
2019-02-24T06:32:53.343Z,-1.30
2019-02-24T06:33:25.989Z,-1.30
2019-02-24T06:33:58.832Z,-1.30
2019-02-24T06:34:32.049Z,-1.30
2019-02-24T08:10:00.791Z,1.40
2019-02-24T08:14:35.790Z,1.60
2019-02-24T08:15:08.359Z,1.70
2019-02-24T08:15:41.198Z,1.70
2019-02-24T08:16:14.474Z,1.70
2019-02-24T08:16:47.778Z,1.70
2019-02-24T08:17:20.299Z,1.70
2019-02-24T08:17:52.831Z,1.70
2019-02-24T08:18:25.383Z,1.80
2019-02-24T08:18:57.907Z,1.80
2019-02-24T08:19:30.435Z,1.80
2019-02-24T08:20:03.595Z,1.90
2019-02-24T08:20:36.146Z,1.90
2019-02-24T08:21:08.981Z,1.90
2019-02-24T08:21:41.524Z,1.90
2019-02-24T08:22:14.072Z,1.90
2019-02-24T08:22:47.329Z,2.00
2019-02-24T08:23:20.255Z,2.00
2019-02-24T08:23:53.236Z,2.00
2019-02-24T08:24:25.892Z,2.00
2019-02-24T08:24:58.858Z,2.10
2019-02-24T08:25:31.372Z,2.10
2019-02-24T08:26:03.999Z,2.10
2019-02-24T08:26:36.517Z,2.20
2019-02-24T08:27:09.569Z,2.20
2019-02-24T08:27:42.149Z,2.30
2019-02-24T08:28:14.693Z,2.30
2019-02-24T08:28:47.255Z,2.30
2019-02-24T08:29:20.287Z,2.30
2019-02-24T08:29:52.920Z,2.30
2019-02-24T08:30:25.715Z,2.40
2019-02-24T08:30:59.829Z,2.40
2019-02-24T08:31:32.971Z,2.40
2019-02-24T08:32:06.267Z,2.50
2019-02-24T08:32:38.865Z,2.50
2019-02-24T08:33:11.755Z,2.50
2019-02-24T08:33:44.337Z,2.50
2019-02-24T08:34:16.942Z,2.50
2019-02-24T08:34:50.514Z,2.60
2019-02-24T08:35:23.487Z,2.60
2019-02-24T08:35:56.504Z,2.60
2019-02-24T08:36:29.029Z,2.60
2019-02-24T08:37:01.860Z,2.60
2019-02-24T08:37:34.483Z,2.70
2019-02-24T08:38:07.007Z,2.70
2019-02-24T08:38:40.459Z,2.70
2019-02-24T08:39:13.131Z,2.70
2019-02-24T08:39:45.807Z,2.70
2019-02-24T08:40:18.396Z,2.80
2019-02-24T08:40:51.677Z,2.80
2019-02-24T08:41:24.555Z,2.80
2019-02-24T08:41:58.261Z,2.80
2019-02-24T08:42:30.798Z,2.80
2019-02-24T08:43:03.391Z,2.90
2019-02-24T08:43:38.961Z,2.80
2019-02-24T08:44:11.656Z,2.90
2019-02-24T08:44:44.317Z,2.90
2019-02-24T08:45:16.859Z,2.90
2019-02-24T08:45:49.885Z,2.90
2019-02-24T08:46:22.706Z,2.90
2019-02-24T08:46:55.719Z,3.00
2019-02-24T08:47:28.415Z,3.00
2019-02-24T08:48:00.960Z,3.00
2019-02-24T08:48:33.785Z,3.00
2019-02-24T08:49:06.623Z,3.00
2019-02-24T08:49:39.197Z,3.10
2019-02-24T08:50:12.023Z,3.00
2019-02-24T08:50:47.005Z,3.00
2019-02-24T08:51:19.516Z,3.00
2019-02-24T08:51:52.039Z,3.00
2019-02-24T08:52:27.385Z,3.10
2019-02-24T08:52:59.907Z,3.10